Viking Destiny — V7HR6 — position and weather

sailwx.info

Track history (hours):
 
Tides and Currents Weather Stations Pressure Air Temp Water Temp Dewpoint Dewpoint Depression Visibility Wind Speed Wind Dir Waves Ship Positions

Viking Destiny

Last reported at 2017-Nov-01 00:01 UTC. Time now 2017-Nov-22 20:34 UTC.
Position S 32°28' E 031°53'.
Warning: this ship's position is 21 days out of date.

Length 199 m; draft 9.8 m.

Type: Cargo ship. MMSI: 538007385.

Date/timePositionNaut miles runAvg speedWind from/ knotsBaromVisibWave heightAir tempDewpointWater temp
2017-Nov-01 00:01S 32°28' E 031°53'016.3
2017-Nov-01 00:01S 32°28' E 031°53'3015.5
2017-Oct-31 22:04S 32°16' E 032°26'716.1
2017-Oct-31 21:39S 32°14' E 032°33'216.1
2017-Oct-31 21:31S 32°13' E 032°35'916.2
2017-Oct-31 20:56S 32°09' E 032°46'816.4
2017-Oct-31 20:27S 32°06' E 032°54'3416.7
2017-Oct-31 18:24S 31°52' E 033°31'3517.0
2017-Oct-31 16:21S 31°38' E 034°08'617.2
2017-Oct-31 16:00S 31°35' E 034°15'917.2
2017-Oct-31 15:30S 31°32' E 034°24'1217.1
2017-Oct-31 14:47S 31°27' E 034°37'517.3
2017-Oct-31 14:28S 31°24' E 034°43'817.3
2017-Oct-31 14:01S 31°21' E 034°51'1717.3
2017-Oct-31 13:02S 31°12' E 035°08'1018.5
2017-Oct-31 12:29S 31°07' E 035°18'1018.6
2017-Oct-31 11:57S 31°02' E 035°28'1417.5
2017-Oct-31 11:08S 30°55' E 035°43'4716.3
2017-Oct-31 08:14S 30°34' E 036°32'  
Track history (hours):
 
Tides and Currents Weather Stations Pressure Air Temp Water Temp Dewpoint Dewpoint Depression Visibility Wind Speed Wind Dir Waves Ship Positions

Viking Destiny

Last reported at 2017-Nov-01 00:01 UTC. Time now 2017-Nov-22 20:34 UTC.
Position S 32°28' E 031°53'.
Warning: this ship's position is 21 days out of date.

Length 199 m; draft 9.8 m.

Type: Cargo ship. MMSI: 538007385.

Date/timePositionNaut miles runAvg speedWind from/ knotsBaromVisibWave heightAir tempDewpointWater temp
2017-Nov-01 00:01S 32°28' E 031°53'016.3
2017-Nov-01 00:01S 32°28' E 031°53'3015.5
2017-Oct-31 22:04S 32°16' E 032°26'716.1
2017-Oct-31 21:39S 32°14' E 032°33'216.1
2017-Oct-31 21:31S 32°13' E 032°35'916.2
2017-Oct-31 20:56S 32°09' E 032°46'816.4
2017-Oct-31 20:27S 32°06' E 032°54'3416.7
2017-Oct-31 18:24S 31°52' E 033°31'3517.0
2017-Oct-31 16:21S 31°38' E 034°08'617.2
2017-Oct-31 16:00S 31°35' E 034°15'917.2
2017-Oct-31 15:30S 31°32' E 034°24'1217.1
2017-Oct-31 14:47S 31°27' E 034°37'517.3
2017-Oct-31 14:28S 31°24' E 034°43'817.3
2017-Oct-31 14:01S 31°21' E 034°51'1717.3
2017-Oct-31 13:02S 31°12' E 035°08'1018.5
2017-Oct-31 12:29S 31°07' E 035°18'1018.6
2017-Oct-31 11:57S 31°02' E 035°28'1417.5
2017-Oct-31 11:08S 30°55' E 035°43'4716.3
2017-Oct-31 08:14S 30°34' E 036°32'  

Dump ship's entire track history